sensor_id;sensor_type;location;lat;lon;timestamp;temperature;humidity
1011;DHT22;494;48.744;10.106;2022-12-07T00:56:31;5.20;45.00
1011;DHT22;494;48.744;10.106;2022-12-07T00:59:02;5.20;45.00
1011;DHT22;494;48.744;10.106;2022-12-07T01:01:34;5.30;44.70
1011;DHT22;494;48.744;10.106;2022-12-07T01:04:04;5.40;44.50
1011;DHT22;494;48.744;10.106;2022-12-07T01:06:33;5.40;44.10
1011;DHT22;494;48.744;10.106;2022-12-07T01:09:02;5.30;44.70
1011;DHT22;494;48.744;10.106;2022-12-07T01:11:33;5.40;44.80
1011;DHT22;494;48.744;10.106;2022-12-07T01:14:02;5.50;44.50
1011;DHT22;494;48.744;10.106;2022-12-07T01:16:32;5.50;44.30
1011;DHT22;494;48.744;10.106;2022-12-07T01:19:02;5.70;44.20
1011;DHT22;494;48.744;10.106;2022-12-07T01:21:34;5.70;43.70
1011;DHT22;494;48.744;10.106;2022-12-07T01:24:06;5.80;43.00
1011;DHT22;494;48.744;10.106;2022-12-07T01:26:38;5.80;43.00
1011;DHT22;494;48.744;10.106;2022-12-07T01:29:08;5.80;43.00
1011;DHT22;494;48.744;10.106;2022-12-07T01:31:36;5.90;43.00
1011;DHT22;494;48.744;10.106;2022-12-07T01:34:05;6.00;42.70
1011;DHT22;494;48.744;10.106;2022-12-07T01:36:35;6.10;42.60
1011;DHT22;494;48.744;10.106;2022-12-07T01:39:05;6.00;42.20
1011;DHT22;494;48.744;10.106;2022-12-07T01:41:38;6.00;42.00
1011;DHT22;494;48.744;10.106;2022-12-07T01:44:16;6.10;42.00
1011;DHT22;494;48.744;10.106;2022-12-07T01:46:49;6.10;41.70
1011;DHT22;494;48.744;10.106;2022-12-07T01:49:26;5.90;41.90
1011;DHT22;494;48.744;10.106;2022-12-07T01:52:03;6.00;42.20
1011;DHT22;494;48.744;10.106;2022-12-07T01:54:38;6.00;42.20
1011;DHT22;494;48.744;10.106;2022-12-07T01:57:09;6.10;42.10
1011;DHT22;494;48.744;10.106;2022-12-07T01:59:39;6.10;42.00
1011;DHT22;494;48.744;10.106;2022-12-07T02:02:19;6.10;41.80
1011;DHT22;494;48.744;10.106;2022-12-07T02:04:52;6.00;41.90
1011;DHT22;494;48.744;10.106;2022-12-07T02:07:23;6.00;41.70
1011;DHT22;494;48.744;10.106;2022-12-07T02:09:53;5.90;42.10
1011;DHT22;494;48.744;10.106;2022-12-07T02:12:24;5.80;42.30
1011;DHT22;494;48.744;10.106;2022-12-07T02:14:53;5.80;42.20
1011;DHT22;494;48.744;10.106;2022-12-07T02:17:27;5.60;42.70
1011;DHT22;494;48.744;10.106;2022-12-07T02:20:21;5.60;43.30
1011;DHT22;494;48.744;10.106;2022-12-07T02:23:23;5.60;43.70
1011;DHT22;494;48.744;10.106;2022-12-07T02:26:25;5.70;43.50
1011;DHT22;494;48.744;10.106;2022-12-07T02:29:24;5.60;43.80
1011;DHT22;494;48.744;10.106;2022-12-07T02:32:04;5.60;44.30
1011;DHT22;494;48.744;10.106;2022-12-07T02:34:46;5.60;44.20
1011;DHT22;494;48.744;10.106;2022-12-07T02:37:25;5.70;44.00
1011;DHT22;494;48.744;10.106;2022-12-07T02:40:05;5.80;43.30
1011;DHT22;494;48.744;10.106;2022-12-07T02:42:41;5.80;42.90
1011;DHT22;494;48.744;10.106;2022-12-07T02:45:17;5.80;42.60
1011;DHT22;494;48.744;10.106;2022-12-07T02:47:52;5.90;42.50
1011;DHT22;494;48.744;10.106;2022-12-07T02:50:26;5.90;42.20
1011;DHT22;494;48.744;10.106;2022-12-07T02:52:55;5.80;41.60
1011;DHT22;494;48.744;10.106;2022-12-07T02:55:28;5.80;41.60
1011;DHT22;494;48.744;10.106;2022-12-07T02:58:14;5.80;41.70
1011;DHT22;494;48.744;10.106;2022-12-07T03:01:01;5.90;42.10
1011;DHT22;494;48.744;10.106;2022-12-07T03:03:37;5.80;42.00
1011;DHT22;494;48.744;10.106;2022-12-07T03:06:17;5.80;41.60
1011;DHT22;494;48.744;10.106;2022-12-07T03:08:56;5.70;42.10
1011;DHT22;494;48.744;10.106;2022-12-07T03:11:42;5.60;42.30
1011;DHT22;494;48.744;10.106;2022-12-07T03:14:18;5.60;42.00
1011;DHT22;494;48.744;10.106;2022-12-07T03:16:55;5.70;42.10
1011;DHT22;494;48.744;10.106;2022-12-07T03:19:31;5.70;42.00
1011;DHT22;494;48.744;10.106;2022-12-07T03:22:07;5.70;41.50
1011;DHT22;494;48.744;10.106;2022-12-07T03:24:43;5.70;41.30
1011;DHT22;494;48.744;10.106;2022-12-07T03:27:22;5.80;41.20
1011;DHT22;494;48.744;10.106;2022-12-07T03:29:58;5.80;40.90
1011;DHT22;494;48.744;10.106;2022-12-07T03:32:34;5.80;41.00
1011;DHT22;494;48.744;10.106;2022-12-07T03:35:11;5.80;40.80
1011;DHT22;494;48.744;10.106;2022-12-07T03:37:47;5.90;40.90
1011;DHT22;494;48.744;10.106;2022-12-07T03:40:23;5.90;40.70
1011;DHT22;494;48.744;10.106;2022-12-07T03:42:57;5.90;40.70
1011;DHT22;494;48.744;10.106;2022-12-07T03:45:32;5.90;40.80
1011;DHT22;494;48.744;10.106;2022-12-07T03:48:16;5.80;40.70
1011;DHT22;494;48.744;10.106;2022-12-07T03:50:59;5.80;41.00
1011;DHT22;494;48.744;10.106;2022-12-07T03:53:37;5.70;41.40
1011;DHT22;494;48.744;10.106;2022-12-07T03:56:11;5.70;41.30
1011;DHT22;494;48.744;10.106;2022-12-07T03:58:41;5.80;41.40
1011;DHT22;494;48.744;10.106;2022-12-07T04:01:11;5.80;41.40
1011;DHT22;494;48.744;10.106;2022-12-07T04:03:41;5.80;41.40
1011;DHT22;494;48.744;10.106;2022-12-07T04:06:10;5.90;41.40
1011;DHT22;494;48.744;10.106;2022-12-07T04:08:39;6.10;41.20
1011;DHT22;494;48.744;10.106;2022-12-07T04:11:07;5.90;41.00
1011;DHT22;494;48.744;10.106;2022-12-07T04:13:36;5.90;40.90
1011;DHT22;494;48.744;10.106;2022-12-07T04:16:18;5.80;40.80
1011;DHT22;494;48.744;10.106;2022-12-07T04:18:49;5.80;40.90
1011;DHT22;494;48.744;10.106;2022-12-07T04:21:17;5.70;41.00
1011;DHT22;494;48.744;10.106;2022-12-07T04:23:46;5.60;41.10
1011;DHT22;494;48.744;10.106;2022-12-07T04:26:14;5.80;41.10
1011;DHT22;494;48.744;10.106;2022-12-07T04:28:43;5.80;41.10
1011;DHT22;494;48.744;10.106;2022-12-07T04:31:12;5.80;40.80
1011;DHT22;494;48.744;10.106;2022-12-07T04:33:40;5.80;40.70
1011;DHT22;494;48.744;10.106;2022-12-07T04:36:10;5.80;40.50
1011;DHT22;494;48.744;10.106;2022-12-07T04:38:39;5.70;40.40
1011;DHT22;494;48.744;10.106;2022-12-07T04:41:08;5.70;40.40
1011;DHT22;494;48.744;10.106;2022-12-07T04:43:37;5.60;40.50
1011;DHT22;494;48.744;10.106;2022-12-07T04:46:06;5.50;40.80
1011;DHT22;494;48.744;10.106;2022-12-07T04:48:35;5.50;41.20
1011;DHT22;494;48.744;10.106;2022-12-07T04:51:04;5.40;41.30
1011;DHT22;494;48.744;10.106;2022-12-07T04:53:34;5.40;41.50
1011;DHT22;494;48.744;10.106;2022-12-07T04:56:03;5.30;41.70
1011;DHT22;494;48.744;10.106;2022-12-07T04:58:32;5.30;42.00
1011;DHT22;494;48.744;10.106;2022-12-07T05:01:01;5.30;42.10
1011;DHT22;494;48.744;10.106;2022-12-07T05:03:30;5.30;42.10
1011;DHT22;494;48.744;10.106;2022-12-07T05:05:59;5.30;42.20
1011;DHT22;494;48.744;10.106;2022-12-07T05:08:28;5.20;42.10
1011;DHT22;494;48.744;10.106;2022-12-07T05:10:58;5.20;41.90
1011;DHT22;494;48.744;10.106;2022-12-07T05:13:27;5.40;42.00
1011;DHT22;494;48.744;10.106;2022-12-07T05:15:56;5.20;41.70
1011;DHT22;494;48.744;10.106;2022-12-07T05:18:25;5.20;41.70
1011;DHT22;494;48.744;10.106;2022-12-07T05:20:54;4.90;41.50
1011;DHT22;494;48.744;10.106;2022-12-07T05:23:23;4.90;42.00
1011;DHT22;494;48.744;10.106;2022-12-07T05:25:51;4.90;42.20
1011;DHT22;494;48.744;10.106;2022-12-07T05:28:21;5.10;42.30
1011;DHT22;494;48.744;10.106;2022-12-07T05:30:50;5.20;42.30
1011;DHT22;494;48.744;10.106;2022-12-07T05:33:25;5.20;42.10
1011;DHT22;494;48.744;10.106;2022-12-07T05:35:54;5.20;41.70
1011;DHT22;494;48.744;10.106;2022-12-07T05:38:23;5.20;41.50
1011;DHT22;494;48.744;10.106;2022-12-07T05:40:52;5.30;41.50
1011;DHT22;494;48.744;10.106;2022-12-07T05:43:22;5.30;41.30
1011;DHT22;494;48.744;10.106;2022-12-07T05:45:51;5.40;41.00
1011;DHT22;494;48.744;10.106;2022-12-07T05:48:20;5.40;40.60
1011;DHT22;494;48.744;10.106;2022-12-07T05:50:48;5.60;40.50
1011;DHT22;494;48.744;10.106;2022-12-07T05:53:18;5.40;40.40
1011;DHT22;494;48.744;10.106;2022-12-07T05:55:49;5.40;40.50
1011;DHT22;494;48.744;10.106;2022-12-07T05:58:18;5.50;40.70
1011;DHT22;494;48.744;10.106;2022-12-07T06:01:05;5.50;40.40
1011;DHT22;494;48.744;10.106;2022-12-07T06:03:34;5.60;40.00
1011;DHT22;494;48.744;10.106;2022-12-07T06:06:03;5.60;39.40
1011;DHT22;494;48.744;10.106;2022-12-07T06:08:31;5.50;39.70
1011;DHT22;494;48.744;10.106;2022-12-07T06:11:00;5.50;39.80
1011;DHT22;494;48.744;10.106;2022-12-07T06:13:46;5.50;40.20
1011;DHT22;494;48.744;10.106;2022-12-07T06:16:16;5.60;39.90
1011;DHT22;494;48.744;10.106;2022-12-07T06:18:45;5.60;40.00
1011;DHT22;494;48.744;10.106;2022-12-07T06:21:13;5.60;40.00
1011;DHT22;494;48.744;10.106;2022-12-07T06:23:42;5.70;39.80
1011;DHT22;494;48.744;10.106;2022-12-07T06:26:11;5.60;39.60
1011;DHT22;494;48.744;10.106;2022-12-07T06:28:39;5.60;39.70
1011;DHT22;494;48.744;10.106;2022-12-07T06:31:10;5.60;39.40
1011;DHT22;494;48.744;10.106;2022-12-07T06:33:42;5.60;39.40
1011;DHT22;494;48.744;10.106;2022-12-07T06:36:10;5.60;39.30
1011;DHT22;494;48.744;10.106;2022-12-07T06:38:39;5.60;39.40
1011;DHT22;494;48.744;10.106;2022-12-07T06:41:08;5.50;39.30
1011;DHT22;494;48.744;10.106;2022-12-07T06:43:36;5.30;39.80
1011;DHT22;494;48.744;10.106;2022-12-07T06:46:05;5.30;40.60
1011;DHT22;494;48.744;10.106;2022-12-07T06:48:34;5.30;40.60
1011;DHT22;494;48.744;10.106;2022-12-07T06:51:05;5.30;40.60
1011;DHT22;494;48.744;10.106;2022-12-07T06:53:33;5.30;40.50
1011;DHT22;494;48.744;10.106;2022-12-07T06:56:03;5.40;40.70
1011;DHT22;494;48.744;10.106;2022-12-07T06:58:32;5.40;40.20
1011;DHT22;494;48.744;10.106;2022-12-07T07:01:01;5.30;40.40
1011;DHT22;494;48.744;10.106;2022-12-07T07:03:30;5.30;40.50
1011;DHT22;494;48.744;10.106;2022-12-07T07:05:59;5.30;40.70
1011;DHT22;494;48.744;10.106;2022-12-07T07:08:29;5.40;40.80
1011;DHT22;494;48.744;10.106;2022-12-07T07:10:57;5.40;40.70
1011;DHT22;494;48.744;10.106;2022-12-07T07:13:26;5.40;40.30
1011;DHT22;494;48.744;10.106;2022-12-07T07:15:56;5.40;40.00
1011;DHT22;494;48.744;10.106;2022-12-07T07:18:25;5.40;40.50
1011;DHT22;494;48.744;10.106;2022-12-07T07:20:55;5.30;40.50
1011;DHT22;494;48.744;10.106;2022-12-07T07:23:24;5.40;40.60
1011;DHT22;494;48.744;10.106;2022-12-07T07:25:55;5.30;40.60
1011;DHT22;494;48.744;10.106;2022-12-07T07:28:23;5.30;40.90
1011;DHT22;494;48.744;10.106;2022-12-07T07:30:52;5.30;40.80
1011;DHT22;494;48.744;10.106;2022-12-07T07:33:21;5.40;40.90
1011;DHT22;494;48.744;10.106;2022-12-07T07:35:50;5.40;40.50
1011;DHT22;494;48.744;10.106;2022-12-07T07:38:18;5.30;40.90
1011;DHT22;494;48.744;10.106;2022-12-07T07:40:47;5.50;41.10
1011;DHT22;494;48.744;10.106;2022-12-07T07:43:17;5.40;40.90
1011;DHT22;494;48.744;10.106;2022-12-07T07:45:46;5.50;41.00
1011;DHT22;494;48.744;10.106;2022-12-07T07:48:15;5.50;40.50
1011;DHT22;494;48.744;10.106;2022-12-07T07:50:43;5.60;39.90
1011;DHT22;494;48.744;10.106;2022-12-07T07:53:12;5.60;39.90
1011;DHT22;494;48.744;10.106;2022-12-07T07:55:41;5.70;39.70
1011;DHT22;494;48.744;10.106;2022-12-07T07:58:09;5.70;39.30
1011;DHT22;494;48.744;10.106;2022-12-07T08:00:39;5.80;39.20
1011;DHT22;494;48.744;10.106;2022-12-07T08:03:08;5.80;39.00
1011;DHT22;494;48.744;10.106;2022-12-07T08:05:37;5.90;38.70
1011;DHT22;494;48.744;10.106;2022-12-07T08:08:06;5.90;38.00
1011;DHT22;494;48.744;10.106;2022-12-07T08:10:35;5.90;37.80
1011;DHT22;494;48.744;10.106;2022-12-07T08:13:04;5.90;37.60
1011;DHT22;494;48.744;10.106;2022-12-07T08:15:41;5.80;37.70
1011;DHT22;494;48.744;10.106;2022-12-07T08:18:12;5.90;37.80
1011;DHT22;494;48.744;10.106;2022-12-07T08:20:41;6.00;37.50
1011;DHT22;494;48.744;10.106;2022-12-07T08:23:11;6.20;36.90
1011;DHT22;494;48.744;10.106;2022-12-07T08:25:40;6.10;37.30
1011;DHT22;494;48.744;10.106;2022-12-07T08:28:09;6.30;37.30
1011;DHT22;494;48.744;10.106;2022-12-07T08:30:37;6.50;37.20
1011;DHT22;494;48.744;10.106;2022-12-07T08:33:09;6.40;36.10
1011;DHT22;494;48.744;10.106;2022-12-07T08:35:38;6.50;35.70
1011;DHT22;494;48.744;10.106;2022-12-07T08:38:07;6.50;35.40
1011;DHT22;494;48.744;10.106;2022-12-07T08:40:35;6.50;35.10
1011;DHT22;494;48.744;10.106;2022-12-07T08:43:04;6.50;33.30
1011;DHT22;494;48.744;10.106;2022-12-07T08:45:33;6.30;33.70
1011;DHT22;494;48.744;10.106;2022-12-07T08:48:06;6.30;33.40
1011;DHT22;494;48.744;10.106;2022-12-07T08:50:40;6.20;33.30
1011;DHT22;494;48.744;10.106;2022-12-07T08:53:15;6.10;32.80
1011;DHT22;494;48.744;10.106;2022-12-07T08:55:45;6.00;32.60
1011;DHT22;494;48.744;10.106;2022-12-07T08:58:15;5.90;33.30
1011;DHT22;494;48.744;10.106;2022-12-07T09:00:43;6.10;33.30
1011;DHT22;494;48.744;10.106;2022-12-07T09:03:13;5.90;32.90
1011;DHT22;494;48.744;10.106;2022-12-07T09:05:42;5.90;33.20
1011;DHT22;494;48.744;10.106;2022-12-07T09:08:11;6.00;33.00
1011;DHT22;494;48.744;10.106;2022-12-07T09:10:40;6.10;32.80
1011;DHT22;494;48.744;10.106;2022-12-07T09:13:08;6.10;31.40
1011;DHT22;494;48.744;10.106;2022-12-07T09:15:37;6.20;31.80
1011;DHT22;494;48.744;10.106;2022-12-07T09:18:06;6.20;31.30
1011;DHT22;494;48.744;10.106;2022-12-07T09:20:36;6.20;31.00
1011;DHT22;494;48.744;10.106;2022-12-07T09:23:05;6.20;30.60
1011;DHT22;494;48.744;10.106;2022-12-07T09:25:34;6.30;31.20
1011;DHT22;494;48.744;10.106;2022-12-07T09:28:03;6.10;30.70
1011;DHT22;494;48.744;10.106;2022-12-07T09:30:32;6.00;31.10
1011;DHT22;494;48.744;10.106;2022-12-07T09:33:21;6.00;30.90
1011;DHT22;494;48.744;10.106;2022-12-07T09:35:51;6.00;30.90
1011;DHT22;494;48.744;10.106;2022-12-07T09:38:21;5.90;31.30
1011;DHT22;494;48.744;10.106;2022-12-07T09:40:50;5.80;30.60
1011;DHT22;494;48.744;10.106;2022-12-07T09:43:21;5.80;31.90
1011;DHT22;494;48.744;10.106;2022-12-07T09:45:53;5.80;31.90
1011;DHT22;494;48.744;10.106;2022-12-07T09:48:29;5.90;32.10
1011;DHT22;494;48.744;10.106;2022-12-07T09:51:01;5.90;31.60
1011;DHT22;494;48.744;10.106;2022-12-07T09:53:34;6.00;31.50
1011;DHT22;494;48.744;10.106;2022-12-07T09:56:05;6.10;31.30
1011;DHT22;494;48.744;10.106;2022-12-07T09:58:34;6.10;30.60
1011;DHT22;494;48.744;10.106;2022-12-07T10:01:11;6.00;31.50
1011;DHT22;494;48.744;10.106;2022-12-07T10:03:47;5.90;31.10
1011;DHT22;494;48.744;10.106;2022-12-07T10:06:19;5.90;31.70
1011;DHT22;494;48.744;10.106;2022-12-07T10:08:49;6.10;31.60
1011;DHT22;494;48.744;10.106;2022-12-07T10:11:17;6.30;31.50
1011;DHT22;494;48.744;10.106;2022-12-07T10:13:48;6.50;30.80
1011;DHT22;494;48.744;10.106;2022-12-07T10:16:37;6.80;30.50
1011;DHT22;494;48.744;10.106;2022-12-07T10:19:20;7.10;29.20
1011;DHT22;494;48.744;10.106;2022-12-07T10:22:04;7.30;28.20
1011;DHT22;494;48.744;10.106;2022-12-07T10:24:38;7.40;27.40
1011;DHT22;494;48.744;10.106;2022-12-07T10:27:19;7.40;27.00
1011;DHT22;494;48.744;10.106;2022-12-07T10:29:51;7.30;27.60
1011;DHT22;494;48.744;10.106;2022-12-07T10:32:31;7.40;27.80
1011;DHT22;494;48.744;10.106;2022-12-07T10:35:20;7.30;27.60
1011;DHT22;494;48.744;10.106;2022-12-07T10:37:55;7.00;28.40
1011;DHT22;494;48.744;10.106;2022-12-07T10:40:29;7.10;28.70
1011;DHT22;494;48.744;10.106;2022-12-07T10:43:03;7.00;28.90
1011;DHT22;494;48.744;10.106;2022-12-07T10:45:35;6.90;29.70
1011;DHT22;494;48.744;10.106;2022-12-07T10:48:32;6.70;30.10
1011;DHT22;494;48.744;10.106;2022-12-07T10:51:10;6.90;30.70
1011;DHT22;494;48.744;10.106;2022-12-07T10:54:00;6.90;30.30
1011;DHT22;494;48.744;10.106;2022-12-07T10:56:54;7.00;30.10
1011;DHT22;494;48.744;10.106;2022-12-07T10:59:47;7.00;29.70
1011;DHT22;494;48.744;10.106;2022-12-07T11:02:32;7.20;29.90
1011;DHT22;494;48.744;10.106;2022-12-07T11:05:19;7.30;30.20
1011;DHT22;494;48.744;10.106;2022-12-07T11:08:02;7.20;29.20
1011;DHT22;494;48.744;10.106;2022-12-07T11:10:47;7.20;29.90
1011;DHT22;494;48.744;10.106;2022-12-07T11:13:29;7.20;29.70
1011;DHT22;494;48.744;10.106;2022-12-07T11:16:15;7.20;29.70
1011;DHT22;494;48.744;10.106;2022-12-07T11:18:59;7.20;29.90
1011;DHT22;494;48.744;10.106;2022-12-07T11:21:48;7.20;30.30
1011;DHT22;494;48.744;10.106;2022-12-07T11:24:28;7.20;30.70
1011;DHT22;494;48.744;10.106;2022-12-07T11:27:13;7.20;30.90
1011;DHT22;494;48.744;10.106;2022-12-07T11:30:03;7.30;31.10
1011;DHT22;494;48.744;10.106;2022-12-07T11:35:44;7.30;30.90
1011;DHT22;494;48.744;10.106;2022-12-07T11:38:24;7.30;30.90
1011;DHT22;494;48.744;10.106;2022-12-07T11:41:01;7.10;31.20
1011;DHT22;494;48.744;10.106;2022-12-07T11:43:56;7.10;32.40
1011;DHT22;494;48.744;10.106;2022-12-07T11:46:40;7.10;31.80
1011;DHT22;494;48.744;10.106;2022-12-07T11:49:21;7.10;32.00
1011;DHT22;494;48.744;10.106;2022-12-07T11:51:57;6.90;32.20
1011;DHT22;494;48.744;10.106;2022-12-07T11:54:34;6.70;32.40
1011;DHT22;494;48.744;10.106;2022-12-07T11:57:14;6.80;33.00
1011;DHT22;494;48.744;10.106;2022-12-07T11:59:50;6.90;32.50
1011;DHT22;494;48.744;10.106;2022-12-07T12:02:31;7.00;32.10
1011;DHT22;494;48.744;10.106;2022-12-07T12:05:13;7.00;32.00
1011;DHT22;494;48.744;10.106;2022-12-07T12:07:47;7.00;31.90
1011;DHT22;494;48.744;10.106;2022-12-07T12:10:51;7.20;31.50
1011;DHT22;494;48.744;10.106;2022-12-07T12:13:55;7.30;31.70
1011;DHT22;494;48.744;10.106;2022-12-07T12:17:11;7.30;31.60
1011;DHT22;494;48.744;10.106;2022-12-07T12:20:03;7.20;30.60
1011;DHT22;494;48.744;10.106;2022-12-07T12:22:38;7.20;32.10
1011;DHT22;494;48.744;10.106;2022-12-07T12:25:19;7.30;32.00
1011;DHT22;494;48.744;10.106;2022-12-07T12:27:54;7.40;31.10
1011;DHT22;494;48.744;10.106;2022-12-07T12:30:34;7.40;31.10
1011;DHT22;494;48.744;10.106;2022-12-07T12:33:13;7.40;31.30
1011;DHT22;494;48.744;10.106;2022-12-07T12:35:44;7.60;31.30
1011;DHT22;494;48.744;10.106;2022-12-07T12:38:32;7.70;31.00
1011;DHT22;494;48.744;10.106;2022-12-07T12:41:02;7.80;30.90
1011;DHT22;494;48.744;10.106;2022-12-07T12:43:55;7.80;29.50
1011;DHT22;494;48.744;10.106;2022-12-07T12:46:44;7.80;30.00
1011;DHT22;494;48.744;10.106;2022-12-07T12:53:12;7.60;30.70
1011;DHT22;494;48.744;10.106;2022-12-07T12:59:25;7.50;31.80
1011;DHT22;494;48.744;10.106;2022-12-07T13:02:12;7.70;32.00
1011;DHT22;494;48.744;10.106;2022-12-07T17:54:40;6.50;36.20
1011;DHT22;494;48.744;10.106;2022-12-07T17:57:26;6.50;36.40
1011;DHT22;494;48.744;10.106;2022-12-07T18:02:32;6.60;36.30
1011;DHT22;494;48.744;10.106;2022-12-07T18:04:24;6.60;36.20
1011;DHT22;494;48.744;10.106;2022-12-07T18:07:53;6.70;36.10
1011;DHT22;494;48.744;10.106;2022-12-07T18:11:01;6.80;36.10
1011;DHT22;494;48.744;10.106;2022-12-07T18:13:37;6.70;35.90
1011;DHT22;494;48.744;10.106;2022-12-07T18:16:18;6.60;35.90
1011;DHT22;494;48.744;10.106;2022-12-07T18:19:27;6.60;36.60
1011;DHT22;494;48.744;10.106;2022-12-07T18:22:17;6.50;36.30
1011;DHT22;494;48.744;10.106;2022-12-07T18:25:03;6.60;36.40
1011;DHT22;494;48.744;10.106;2022-12-07T18:27:48;6.50;36.40
1011;DHT22;494;48.744;10.106;2022-12-07T18:39:57;6.50;36.80
1011;DHT22;494;48.744;10.106;2022-12-07T18:43:16;6.40;36.90
1011;DHT22;494;48.744;10.106;2022-12-07T18:46:33;6.50;37.00
1011;DHT22;494;48.744;10.106;2022-12-07T18:53:16;6.50;36.90
1011;DHT22;494;48.744;10.106;2022-12-07T18:57:08;6.40;36.80
1011;DHT22;494;48.744;10.106;2022-12-07T18:59:58;6.40;37.10
1011;DHT22;494;48.744;10.106;2022-12-07T19:03:56;6.30;37.10
1011;DHT22;494;48.744;10.106;2022-12-07T19:07:33;6.20;37.20
1011;DHT22;494;48.744;10.106;2022-12-07T19:11:03;6.30;37.50
1011;DHT22;494;48.744;10.106;2022-12-07T19:19:02;5.90;37.80
1011;DHT22;494;48.744;10.106;2022-12-07T21:25:57;6.30;36.40
1011;DHT22;494;48.744;10.106;2022-12-07T21:28:26;6.30;36.40
1011;DHT22;494;48.744;10.106;2022-12-07T21:30:56;6.30;36.30
1011;DHT22;494;48.744;10.106;2022-12-07T21:33:41;6.30;36.30
1011;DHT22;494;48.744;10.106;2022-12-07T21:36:12;6.30;36.20
1011;DHT22;494;48.744;10.106;2022-12-07T21:38:43;6.30;36.20
1011;DHT22;494;48.744;10.106;2022-12-07T21:41:14;6.20;36.50
1011;DHT22;494;48.744;10.106;2022-12-07T21:43:45;6.10;36.60
1011;DHT22;494;48.744;10.106;2022-12-07T21:46:16;6.00;37.10
1011;DHT22;494;48.744;10.106;2022-12-07T21:48:50;5.80;37.50
1011;DHT22;494;48.744;10.106;2022-12-07T21:51:22;5.80;37.80
1011;DHT22;494;48.744;10.106;2022-12-07T21:53:56;5.70;38.20
1011;DHT22;494;48.744;10.106;2022-12-07T21:56:27;5.70;38.40
1011;DHT22;494;48.744;10.106;2022-12-07T21:58:59;5.70;38.50
1011;DHT22;494;48.744;10.106;2022-12-07T22:01:31;5.80;38.40
1011;DHT22;494;48.744;10.106;2022-12-07T22:04:04;5.80;38.20
1011;DHT22;494;48.744;10.106;2022-12-07T22:06:35;5.80;38.00
1011;DHT22;494;48.744;10.106;2022-12-07T22:09:06;5.60;38.20
1011;DHT22;494;48.744;10.106;2022-12-07T22:11:35;5.60;38.50
1011;DHT22;494;48.744;10.106;2022-12-07T22:14:04;5.70;38.70
1011;DHT22;494;48.744;10.106;2022-12-07T22:16:51;5.70;38.70
1011;DHT22;494;48.744;10.106;2022-12-07T22:19:20;5.80;38.50
1011;DHT22;494;48.744;10.106;2022-12-07T22:21:50;5.70;38.10
1011;DHT22;494;48.744;10.106;2022-12-07T22:24:20;5.80;37.90
1011;DHT22;494;48.744;10.106;2022-12-07T22:26:49;5.80;38.00
1011;DHT22;494;48.744;10.106;2022-12-07T22:29:18;5.90;38.00
1011;DHT22;494;48.744;10.106;2022-12-07T22:31:50;5.90;37.90
1011;DHT22;494;48.744;10.106;2022-12-07T22:34:20;5.90;37.70
1011;DHT22;494;48.744;10.106;2022-12-07T22:36:49;5.90;37.80
1011;DHT22;494;48.744;10.106;2022-12-07T22:39:23;5.90;37.70
1011;DHT22;494;48.744;10.106;2022-12-07T22:41:52;5.80;37.70
1011;DHT22;494;48.744;10.106;2022-12-07T22:44:21;5.90;37.60
1011;DHT22;494;48.744;10.106;2022-12-07T22:46:50;5.80;37.40
1011;DHT22;494;48.744;10.106;2022-12-07T22:49:19;5.70;37.70
1011;DHT22;494;48.744;10.106;2022-12-07T22:51:54;5.70;38.00
1011;DHT22;494;48.744;10.106;2022-12-07T22:54:24;5.50;38.50
1011;DHT22;494;48.744;10.106;2022-12-07T22:56:56;5.30;39.30
1011;DHT22;494;48.744;10.106;2022-12-07T22:59:25;5.30;39.70
1011;DHT22;494;48.744;10.106;2022-12-07T23:01:54;5.30;39.80
1011;DHT22;494;48.744;10.106;2022-12-07T23:04:25;5.30;39.90
1011;DHT22;494;48.744;10.106;2022-12-07T23:06:56;5.40;39.80
1011;DHT22;494;48.744;10.106;2022-12-07T23:09:28;5.40;39.40
1011;DHT22;494;48.744;10.106;2022-12-07T23:11:58;5.50;39.50
1011;DHT22;494;48.744;10.106;2022-12-07T23:14:44;5.50;39.40
1011;DHT22;494;48.744;10.106;2022-12-07T23:17:13;5.50;39.10
1011;DHT22;494;48.744;10.106;2022-12-07T23:19:42;5.60;38.90
1011;DHT22;494;48.744;10.106;2022-12-07T23:22:11;5.50;38.90
1011;DHT22;494;48.744;10.106;2022-12-07T23:24:41;5.50;39.00
1011;DHT22;494;48.744;10.106;2022-12-07T23:27:10;5.40;38.70
1011;DHT22;494;48.744;10.106;2022-12-07T23:29:39;5.40;38.90
1011;DHT22;494;48.744;10.106;2022-12-07T23:32:08;5.40;39.00
1011;DHT22;494;48.744;10.106;2022-12-07T23:34:37;5.50;39.10
1011;DHT22;494;48.744;10.106;2022-12-07T23:37:06;5.40;38.80
1011;DHT22;494;48.744;10.106;2022-12-07T23:39:35;5.40;38.60
1011;DHT22;494;48.744;10.106;2022-12-07T23:42:06;5.40;38.80
1011;DHT22;494;48.744;10.106;2022-12-07T23:44:34;5.40;38.80
1011;DHT22;494;48.744;10.106;2022-12-07T23:47:03;5.50;38.70
1011;DHT22;494;48.744;10.106;2022-12-07T23:49:32;5.40;38.60
1011;DHT22;494;48.744;10.106;2022-12-07T23:52:01;5.50;38.60
1011;DHT22;494;48.744;10.106;2022-12-07T23:54:31;5.50;38.50
1011;DHT22;494;48.744;10.106;2022-12-07T23:56:59;5.40;38.40
1011;DHT22;494;48.744;10.106;2022-12-07T23:59:30;5.50;38.20
